sensor_id;sensor_type;location;lat;lon;timestamp;temperature;humidity
13436;DHT22;6790;49.520;8.504;2024-03-29T00:02:05;6.80;99.90
13436;DHT22;6790;49.520;8.504;2024-03-29T00:04:31;6.90;99.90
13436;DHT22;6790;49.520;8.504;2024-03-29T00:06:56;7.00;99.90
13436;DHT22;6790;49.520;8.504;2024-03-29T00:09:22;7.10;99.90
13436;DHT22;6790;49.520;8.504;2024-03-29T00:11:48;7.10;99.90
13436;DHT22;6790;49.520;8.504;2024-03-29T00:14:14;7.40;99.90
13436;DHT22;6790;49.520;8.504;2024-03-29T00:16:40;7.70;99.90
13436;DHT22;6790;49.520;8.504;2024-03-29T00:19:05;7.80;99.90
13436;DHT22;6790;49.520;8.504;2024-03-29T00:21:31;7.90;99.90
13436;DHT22;6790;49.520;8.504;2024-03-29T00:23:57;7.90;99.90
13436;DHT22;6790;49.520;8.504;2024-03-29T00:26:23;8.10;99.90
13436;DHT22;6790;49.520;8.504;2024-03-29T00:28:48;8.20;99.90
13436;DHT22;6790;49.520;8.504;2024-03-29T00:31:14;8.50;99.90
13436;DHT22;6790;49.520;8.504;2024-03-29T00:33:40;8.50;99.90
13436;DHT22;6790;49.520;8.504;2024-03-29T00:36:06;8.70;99.90
13436;DHT22;6790;49.520;8.504;2024-03-29T00:38:32;8.70;99.90
13436;DHT22;6790;49.520;8.504;2024-03-29T00:40:58;8.50;99.90
13436;DHT22;6790;49.520;8.504;2024-03-29T00:43:24;8.50;99.90
13436;DHT22;6790;49.520;8.504;2024-03-29T00:45:49;8.60;99.90
13436;DHT22;6790;49.520;8.504;2024-03-29T00:48:15;8.60;99.90
13436;DHT22;6790;49.520;8.504;2024-03-29T00:50:43;8.50;99.90
13436;DHT22;6790;49.520;8.504;2024-03-29T00:53:08;8.50;99.90
13436;DHT22;6790;49.520;8.504;2024-03-29T00:55:34;8.40;99.90
13436;DHT22;6790;49.520;8.504;2024-03-29T00:58:00;8.40;99.90
13436;DHT22;6790;49.520;8.504;2024-03-29T01:00:25;8.50;99.90
13436;DHT22;6790;49.520;8.504;2024-03-29T01:02:52;8.60;99.90
13436;DHT22;6790;49.520;8.504;2024-03-29T01:05:18;8.60;99.90
13436;DHT22;6790;49.520;8.504;2024-03-29T01:07:43;8.60;99.90
13436;DHT22;6790;49.520;8.504;2024-03-29T01:10:09;8.80;99.90
13436;DHT22;6790;49.520;8.504;2024-03-29T01:12:36;8.90;99.90
13436;DHT22;6790;49.520;8.504;2024-03-29T01:15:02;8.90;99.90
13436;DHT22;6790;49.520;8.504;2024-03-29T01:17:28;9.00;99.90
13436;DHT22;6790;49.520;8.504;2024-03-29T01:19:54;9.20;99.90
13436;DHT22;6790;49.520;8.504;2024-03-29T01:22:20;9.20;99.90
13436;DHT22;6790;49.520;8.504;2024-03-29T01:24:46;9.30;99.90
13436;DHT22;6790;49.520;8.504;2024-03-29T01:27:12;9.30;99.90
13436;DHT22;6790;49.520;8.504;2024-03-29T01:29:37;9.30;99.90
13436;DHT22;6790;49.520;8.504;2024-03-29T01:32:03;9.20;99.90
13436;DHT22;6790;49.520;8.504;2024-03-29T01:34:29;9.20;99.90
13436;DHT22;6790;49.520;8.504;2024-03-29T01:36:55;9.30;99.90
13436;DHT22;6790;49.520;8.504;2024-03-29T01:39:21;9.30;99.90
13436;DHT22;6790;49.520;8.504;2024-03-29T01:41:52;9.30;99.90
13436;DHT22;6790;49.520;8.504;2024-03-29T01:44:18;9.30;99.90
13436;DHT22;6790;49.520;8.504;2024-03-29T01:46:43;9.20;99.90
13436;DHT22;6790;49.520;8.504;2024-03-29T01:49:10;9.10;99.90
13436;DHT22;6790;49.520;8.504;2024-03-29T01:51:37;9.10;99.90
13436;DHT22;6790;49.520;8.504;2024-03-29T01:54:06;9.20;99.90
13436;DHT22;6790;49.520;8.504;2024-03-29T01:56:35;9.10;99.90
13436;DHT22;6790;49.520;8.504;2024-03-29T01:59:03;9.00;99.90
13436;DHT22;6790;49.520;8.504;2024-03-29T02:01:29;9.00;99.90
13436;DHT22;6790;49.520;8.504;2024-03-29T02:03:56;9.40;99.90
13436;DHT22;6790;49.520;8.504;2024-03-29T02:06:22;9.40;99.90
13436;DHT22;6790;49.520;8.504;2024-03-29T02:08:50;9.60;99.90
13436;DHT22;6790;49.520;8.504;2024-03-29T02:11:18;9.60;99.90
13436;DHT22;6790;49.520;8.504;2024-03-29T02:13:44;9.50;99.90
13436;DHT22;6790;49.520;8.504;2024-03-29T02:16:10;9.50;99.90
13436;DHT22;6790;49.520;8.504;2024-03-29T02:18:36;9.70;99.90
13436;DHT22;6790;49.520;8.504;2024-03-29T02:21:01;9.60;99.90
13436;DHT22;6790;49.520;8.504;2024-03-29T02:23:29;9.60;99.90
13436;DHT22;6790;49.520;8.504;2024-03-29T02:25:55;9.60;99.90
13436;DHT22;6790;49.520;8.504;2024-03-29T02:28:25;9.40;99.90
13436;DHT22;6790;49.520;8.504;2024-03-29T02:30:51;9.50;99.90
13436;DHT22;6790;49.520;8.504;2024-03-29T02:33:17;9.50;99.90
13436;DHT22;6790;49.520;8.504;2024-03-29T02:35:42;9.50;99.90
13436;DHT22;6790;49.520;8.504;2024-03-29T02:38:08;9.70;99.90
13436;DHT22;6790;49.520;8.504;2024-03-29T02:40:34;9.70;99.90
13436;DHT22;6790;49.520;8.504;2024-03-29T02:42:59;9.60;99.90
13436;DHT22;6790;49.520;8.504;2024-03-29T02:45:25;9.60;99.90
13436;DHT22;6790;49.520;8.504;2024-03-29T02:47:51;9.70;99.90
13436;DHT22;6790;49.520;8.504;2024-03-29T02:50:16;9.80;99.90
13436;DHT22;6790;49.520;8.504;2024-03-29T02:52:42;9.80;99.90
13436;DHT22;6790;49.520;8.504;2024-03-29T02:55:08;9.80;99.90
13436;DHT22;6790;49.520;8.504;2024-03-29T02:57:38;9.70;99.90
13436;DHT22;6790;49.520;8.504;2024-03-29T03:00:08;9.70;99.90
13436;DHT22;6790;49.520;8.504;2024-03-29T03:02:40;9.80;99.90
13436;DHT22;6790;49.520;8.504;2024-03-29T03:05:07;9.90;99.90
13436;DHT22;6790;49.520;8.504;2024-03-29T03:07:33;10.10;99.90
13436;DHT22;6790;49.520;8.504;2024-03-29T03:10:18;10.10;99.90
13436;DHT22;6790;49.520;8.504;2024-03-29T03:13:02;10.00;99.90
13436;DHT22;6790;49.520;8.504;2024-03-29T03:15:28;10.10;99.90
13436;DHT22;6790;49.520;8.504;2024-03-29T03:17:54;10.10;99.90
13436;DHT22;6790;49.520;8.504;2024-03-29T03:20:19;10.10;99.90
13436;DHT22;6790;49.520;8.504;2024-03-29T03:22:45;10.10;99.90
13436;DHT22;6790;49.520;8.504;2024-03-29T03:25:11;10.00;99.90
13436;DHT22;6790;49.520;8.504;2024-03-29T03:27:37;10.10;99.90
13436;DHT22;6790;49.520;8.504;2024-03-29T03:30:03;10.10;99.90
13436;DHT22;6790;49.520;8.504;2024-03-29T03:32:29;10.00;99.90
13436;DHT22;6790;49.520;8.504;2024-03-29T03:34:54;10.00;99.90
13436;DHT22;6790;49.520;8.504;2024-03-29T03:37:20;10.10;99.90
13436;DHT22;6790;49.520;8.504;2024-03-29T03:39:46;10.10;99.90
13436;DHT22;6790;49.520;8.504;2024-03-29T03:42:11;10.10;99.90
13436;DHT22;6790;49.520;8.504;2024-03-29T03:44:37;10.10;99.90
13436;DHT22;6790;49.520;8.504;2024-03-29T03:47:03;10.10;99.90
13436;DHT22;6790;49.520;8.504;2024-03-29T03:49:29;10.10;99.90
13436;DHT22;6790;49.520;8.504;2024-03-29T03:51:54;10.20;99.90
13436;DHT22;6790;49.520;8.504;2024-03-29T03:54:20;10.20;99.90
13436;DHT22;6790;49.520;8.504;2024-03-29T03:56:45;10.00;99.90
13436;DHT22;6790;49.520;8.504;2024-03-29T03:59:11;10.00;99.90
13436;DHT22;6790;49.520;8.504;2024-03-29T04:01:40;10.00;99.90
13436;DHT22;6790;49.520;8.504;2024-03-29T04:04:05;9.90;99.90
13436;DHT22;6790;49.520;8.504;2024-03-29T04:06:31;9.80;99.90
13436;DHT22;6790;49.520;8.504;2024-03-29T04:08:57;9.70;99.90
13436;DHT22;6790;49.520;8.504;2024-03-29T04:11:23;9.60;99.90
13436;DHT22;6790;49.520;8.504;2024-03-29T04:13:48;9.60;99.90
13436;DHT22;6790;49.520;8.504;2024-03-29T04:16:14;9.60;99.90
13436;DHT22;6790;49.520;8.504;2024-03-29T04:18:40;9.70;99.90
13436;DHT22;6790;49.520;8.504;2024-03-29T04:21:05;9.70;99.90
13436;DHT22;6790;49.520;8.504;2024-03-29T04:23:31;9.70;99.90
13436;DHT22;6790;49.520;8.504;2024-03-29T04:25:58;9.50;99.90
13436;DHT22;6790;49.520;8.504;2024-03-29T04:28:25;9.40;99.90
13436;DHT22;6790;49.520;8.504;2024-03-29T04:33:21;9.30;99.90
13436;DHT22;6790;49.520;8.504;2024-03-29T04:35:57;9.10;99.90
13436;DHT22;6790;49.520;8.504;2024-03-29T04:38:27;9.00;99.90
13436;DHT22;6790;49.520;8.504;2024-03-29T04:40:54;9.00;99.90
13436;DHT22;6790;49.520;8.504;2024-03-29T04:43:22;9.00;99.90
13436;DHT22;6790;49.520;8.504;2024-03-29T04:45:48;8.90;99.90
13436;DHT22;6790;49.520;8.504;2024-03-29T04:48:14;8.80;99.90
13436;DHT22;6790;49.520;8.504;2024-03-29T04:50:40;8.70;99.90
13436;DHT22;6790;49.520;8.504;2024-03-29T04:53:07;8.60;99.90
13436;DHT22;6790;49.520;8.504;2024-03-29T04:55:34;8.60;99.90
13436;DHT22;6790;49.520;8.504;2024-03-29T04:58:00;8.60;99.90
13436;DHT22;6790;49.520;8.504;2024-03-29T05:00:26;8.60;99.90
13436;DHT22;6790;49.520;8.504;2024-03-29T05:02:51;8.60;99.90
13436;DHT22;6790;49.520;8.504;2024-03-29T05:05:17;8.60;99.90
13436;DHT22;6790;49.520;8.504;2024-03-29T05:07:43;8.60;99.90
13436;DHT22;6790;49.520;8.504;2024-03-29T05:10:09;8.60;99.90
13436;DHT22;6790;49.520;8.504;2024-03-29T05:12:35;8.60;99.90
13436;DHT22;6790;49.520;8.504;2024-03-29T05:15:02;8.60;99.90
13436;DHT22;6790;49.520;8.504;2024-03-29T05:17:27;8.60;99.90
13436;DHT22;6790;49.520;8.504;2024-03-29T05:19:54;8.70;99.90
13436;DHT22;6790;49.520;8.504;2024-03-29T05:22:20;8.80;99.90
13436;DHT22;6790;49.520;8.504;2024-03-29T05:24:45;8.80;99.90
13436;DHT22;6790;49.520;8.504;2024-03-29T05:27:12;8.80;99.90
13436;DHT22;6790;49.520;8.504;2024-03-29T05:29:38;8.70;99.90
13436;DHT22;6790;49.520;8.504;2024-03-29T05:32:05;8.60;99.90
13436;DHT22;6790;49.520;8.504;2024-03-29T05:34:31;8.60;99.90
13436;DHT22;6790;49.520;8.504;2024-03-29T05:36:57;8.60;99.90
13436;DHT22;6790;49.520;8.504;2024-03-29T05:39:22;8.60;99.90
13436;DHT22;6790;49.520;8.504;2024-03-29T05:41:48;8.60;99.90
13436;DHT22;6790;49.520;8.504;2024-03-29T05:44:14;8.60;99.90
13436;DHT22;6790;49.520;8.504;2024-03-29T05:46:39;8.60;99.90
13436;DHT22;6790;49.520;8.504;2024-03-29T05:49:06;8.60;99.90
13436;DHT22;6790;49.520;8.504;2024-03-29T05:51:32;8.60;99.90
13436;DHT22;6790;49.520;8.504;2024-03-29T05:53:59;8.60;99.90
13436;DHT22;6790;49.520;8.504;2024-03-29T05:56:25;8.60;99.90
13436;DHT22;6790;49.520;8.504;2024-03-29T05:58:51;8.60;99.90
13436;DHT22;6790;49.520;8.504;2024-03-29T06:01:17;8.70;99.90
13436;DHT22;6790;49.520;8.504;2024-03-29T06:03:42;8.70;99.90
13436;DHT22;6790;49.520;8.504;2024-03-29T06:06:08;8.80;99.90
13436;DHT22;6790;49.520;8.504;2024-03-29T06:08:42;8.80;99.90
13436;DHT22;6790;49.520;8.504;2024-03-29T06:11:08;8.80;99.90
13436;DHT22;6790;49.520;8.504;2024-03-29T06:13:34;8.80;99.90
13436;DHT22;6790;49.520;8.504;2024-03-29T06:16:21;8.90;99.90
13436;DHT22;6790;49.520;8.504;2024-03-29T06:19:07;9.00;99.90
13436;DHT22;6790;49.520;8.504;2024-03-29T06:21:33;9.00;99.90
13436;DHT22;6790;49.520;8.504;2024-03-29T06:24:11;9.00;99.90
13436;DHT22;6790;49.520;8.504;2024-03-29T06:26:40;9.00;99.90
13436;DHT22;6790;49.520;8.504;2024-03-29T06:29:07;9.00;99.90
13436;DHT22;6790;49.520;8.504;2024-03-29T06:31:36;9.00;99.90
13436;DHT22;6790;49.520;8.504;2024-03-29T06:34:02;9.10;99.90
13436;DHT22;6790;49.520;8.504;2024-03-29T06:36:27;9.20;99.90
13436;DHT22;6790;49.520;8.504;2024-03-29T06:38:55;9.20;99.90
13436;DHT22;6790;49.520;8.504;2024-03-29T06:41:21;9.30;99.90
13436;DHT22;6790;49.520;8.504;2024-03-29T06:43:47;9.30;99.90
13436;DHT22;6790;49.520;8.504;2024-03-29T06:46:13;9.30;99.90
13436;DHT22;6790;49.520;8.504;2024-03-29T06:48:40;9.40;99.90
13436;DHT22;6790;49.520;8.504;2024-03-29T06:51:06;9.30;99.90
13436;DHT22;6790;49.520;8.504;2024-03-29T06:53:31;9.40;99.90
13436;DHT22;6790;49.520;8.504;2024-03-29T06:56:00;9.40;99.90
13436;DHT22;6790;49.520;8.504;2024-03-29T06:58:26;9.60;99.90
13436;DHT22;6790;49.520;8.504;2024-03-29T07:00:52;9.60;99.90
13436;DHT22;6790;49.520;8.504;2024-03-29T07:03:18;9.70;99.90
13436;DHT22;6790;49.520;8.504;2024-03-29T07:05:45;9.70;99.90
13436;DHT22;6790;49.520;8.504;2024-03-29T07:08:11;9.70;99.90
13436;DHT22;6790;49.520;8.504;2024-03-29T07:10:37;9.70;99.90
13436;DHT22;6790;49.520;8.504;2024-03-29T07:13:03;9.80;99.90
13436;DHT22;6790;49.520;8.504;2024-03-29T07:15:28;9.80;99.90
13436;DHT22;6790;49.520;8.504;2024-03-29T07:17:54;9.80;99.90
13436;DHT22;6790;49.520;8.504;2024-03-29T07:20:20;9.90;99.90
13436;DHT22;6790;49.520;8.504;2024-03-29T07:22:45;10.00;99.90
13436;DHT22;6790;49.520;8.504;2024-03-29T07:25:11;10.00;99.90
13436;DHT22;6790;49.520;8.504;2024-03-29T07:27:37;10.00;99.90
13436;DHT22;6790;49.520;8.504;2024-03-29T07:30:03;10.00;99.90
13436;DHT22;6790;49.520;8.504;2024-03-29T07:32:30;10.10;99.90
13436;DHT22;6790;49.520;8.504;2024-03-29T07:34:56;10.10;99.90
13436;DHT22;6790;49.520;8.504;2024-03-29T07:37:24;10.20;99.90
13436;DHT22;6790;49.520;8.504;2024-03-29T07:39:50;10.40;99.90
13436;DHT22;6790;49.520;8.504;2024-03-29T07:42:15;10.60;99.90
13436;DHT22;6790;49.520;8.504;2024-03-29T07:44:42;10.80;99.90
13436;DHT22;6790;49.520;8.504;2024-03-29T07:47:08;10.80;99.90
13436;DHT22;6790;49.520;8.504;2024-03-29T07:49:33;10.90;99.90
13436;DHT22;6790;49.520;8.504;2024-03-29T07:51:59;11.00;99.90
13436;DHT22;6790;49.520;8.504;2024-03-29T07:54:27;11.00;99.90
13436;DHT22;6790;49.520;8.504;2024-03-29T07:56:53;11.00;99.90
13436;DHT22;6790;49.520;8.504;2024-03-29T07:59:19;11.00;99.90
13436;DHT22;6790;49.520;8.504;2024-03-29T08:01:45;11.00;99.90
13436;DHT22;6790;49.520;8.504;2024-03-29T08:04:11;11.00;99.90
13436;DHT22;6790;49.520;8.504;2024-03-29T08:06:36;11.00;99.90
13436;DHT22;6790;49.520;8.504;2024-03-29T08:09:02;11.00;99.90
13436;DHT22;6790;49.520;8.504;2024-03-29T08:11:28;10.90;99.90
13436;DHT22;6790;49.520;8.504;2024-03-29T08:13:54;11.00;99.90
13436;DHT22;6790;49.520;8.504;2024-03-29T08:16:19;11.00;99.90
13436;DHT22;6790;49.520;8.504;2024-03-29T08:18:48;11.00;99.90
13436;DHT22;6790;49.520;8.504;2024-03-29T08:21:14;11.00;99.90
13436;DHT22;6790;49.520;8.504;2024-03-29T08:23:40;10.90;99.90
13436;DHT22;6790;49.520;8.504;2024-03-29T08:26:07;10.80;99.90
13436;DHT22;6790;49.520;8.504;2024-03-29T08:28:33;10.90;99.90
13436;DHT22;6790;49.520;8.504;2024-03-29T08:31:06;10.80;99.90
13436;DHT22;6790;49.520;8.504;2024-03-29T08:33:35;10.80;99.90
13436;DHT22;6790;49.520;8.504;2024-03-29T08:36:07;10.90;99.90
13436;DHT22;6790;49.520;8.504;2024-03-29T08:38:34;10.90;99.90
13436;DHT22;6790;49.520;8.504;2024-03-29T08:41:00;10.90;99.90
13436;DHT22;6790;49.520;8.504;2024-03-29T08:43:26;10.80;99.90
13436;DHT22;6790;49.520;8.504;2024-03-29T08:45:52;10.70;99.90
13436;DHT22;6790;49.520;8.504;2024-03-29T08:48:18;10.60;99.90
13436;DHT22;6790;49.520;8.504;2024-03-29T08:50:44;10.50;99.90
13436;DHT22;6790;49.520;8.504;2024-03-29T08:53:09;10.50;99.90
13436;DHT22;6790;49.520;8.504;2024-03-29T08:55:35;10.50;99.90
13436;DHT22;6790;49.520;8.504;2024-03-29T08:58:06;10.40;99.90
13436;DHT22;6790;49.520;8.504;2024-03-29T09:00:32;10.30;99.90
13436;DHT22;6790;49.520;8.504;2024-03-29T09:02:58;10.20;99.90
13436;DHT22;6790;49.520;8.504;2024-03-29T09:05:25;10.10;99.90
13436;DHT22;6790;49.520;8.504;2024-03-29T09:07:52;10.00;99.90
13436;DHT22;6790;49.520;8.504;2024-03-29T09:10:18;10.00;99.90
13436;DHT22;6790;49.520;8.504;2024-03-29T09:12:44;9.90;99.90
13436;DHT22;6790;49.520;8.504;2024-03-29T09:15:10;10.00;99.90
13436;DHT22;6790;49.520;8.504;2024-03-29T09:17:47;9.90;99.90
13436;DHT22;6790;49.520;8.504;2024-03-29T09:20:13;9.70;99.90
13436;DHT22;6790;49.520;8.504;2024-03-29T09:22:39;9.60;99.90
13436;DHT22;6790;49.520;8.504;2024-03-29T09:25:05;9.60;99.90
13436;DHT22;6790;49.520;8.504;2024-03-29T09:27:32;9.50;99.90
13436;DHT22;6790;49.520;8.504;2024-03-29T09:30:05;9.40;99.90
13436;DHT22;6790;49.520;8.504;2024-03-29T09:32:32;9.30;99.90
13436;DHT22;6790;49.520;8.504;2024-03-29T09:34:58;9.20;99.90
13436;DHT22;6790;49.520;8.504;2024-03-29T09:37:25;9.20;99.90
13436;DHT22;6790;49.520;8.504;2024-03-29T09:39:51;9.20;99.90
13436;DHT22;6790;49.520;8.504;2024-03-29T09:42:17;9.10;99.90
13436;DHT22;6790;49.520;8.504;2024-03-29T09:44:44;9.10;99.90
13436;DHT22;6790;49.520;8.504;2024-03-29T09:47:14;9.20;99.90
13436;DHT22;6790;49.520;8.504;2024-03-29T09:49:41;9.20;99.90
13436;DHT22;6790;49.520;8.504;2024-03-29T09:52:12;9.30;99.90
13436;DHT22;6790;49.520;8.504;2024-03-29T09:54:38;9.30;99.90
13436;DHT22;6790;49.520;8.504;2024-03-29T09:57:04;9.40;99.90
13436;DHT22;6790;49.520;8.504;2024-03-29T09:59:30;9.40;99.90
13436;DHT22;6790;49.520;8.504;2024-03-29T10:01:57;9.40;99.90
13436;DHT22;6790;49.520;8.504;2024-03-29T10:04:24;9.40;99.90
13436;DHT22;6790;49.520;8.504;2024-03-29T10:06:51;9.40;99.90
13436;DHT22;6790;49.520;8.504;2024-03-29T10:09:21;9.50;99.90
13436;DHT22;6790;49.520;8.504;2024-03-29T10:11:47;9.50;99.90
13436;DHT22;6790;49.520;8.504;2024-03-29T10:14:13;9.50;99.90
13436;DHT22;6790;49.520;8.504;2024-03-29T10:16:39;9.50;99.90
13436;DHT22;6790;49.520;8.504;2024-03-29T10:19:06;9.50;99.90
13436;DHT22;6790;49.520;8.504;2024-03-29T10:21:33;9.50;99.90
13436;DHT22;6790;49.520;8.504;2024-03-29T10:24:09;9.60;99.90
13436;DHT22;6790;49.520;8.504;2024-03-29T10:26:37;9.80;99.90
13436;DHT22;6790;49.520;8.504;2024-03-29T10:29:04;10.00;99.90
13436;DHT22;6790;49.520;8.504;2024-03-29T10:31:36;10.10;99.90
13436;DHT22;6790;49.520;8.504;2024-03-29T10:34:03;10.10;99.90
13436;DHT22;6790;49.520;8.504;2024-03-29T10:36:34;10.40;99.90
13436;DHT22;6790;49.520;8.504;2024-03-29T10:39:09;10.50;99.90
13436;DHT22;6790;49.520;8.504;2024-03-29T10:41:40;10.90;99.90
13436;DHT22;6790;49.520;8.504;2024-03-29T10:44:11;11.10;99.90
13436;DHT22;6790;49.520;8.504;2024-03-29T10:46:38;11.20;99.90
13436;DHT22;6790;49.520;8.504;2024-03-29T10:49:07;11.40;99.90
13436;DHT22;6790;49.520;8.504;2024-03-29T10:51:40;11.80;99.90
13436;DHT22;6790;49.520;8.504;2024-03-29T10:54:11;12.30;99.90
13436;DHT22;6790;49.520;8.504;2024-03-29T10:56:38;12.50;99.90
13436;DHT22;6790;49.520;8.504;2024-03-29T10:59:12;12.90;99.90
13436;DHT22;6790;49.520;8.504;2024-03-29T11:01:45;13.30;99.90
13436;DHT22;6790;49.520;8.504;2024-03-29T11:04:22;13.10;99.90
13436;DHT22;6790;49.520;8.504;2024-03-29T11:06:54;12.70;99.90
13436;DHT22;6790;49.520;8.504;2024-03-29T11:09:27;12.50;99.90
13436;DHT22;6790;49.520;8.504;2024-03-29T11:11:55;12.80;99.90
13436;DHT22;6790;49.520;8.504;2024-03-29T11:14:31;12.70;99.90
13436;DHT22;6790;49.520;8.504;2024-03-29T11:17:13;12.80;99.90
13436;DHT22;6790;49.520;8.504;2024-03-29T11:19:39;12.70;99.90
13436;DHT22;6790;49.520;8.504;2024-03-29T11:22:06;12.40;99.90
13436;DHT22;6790;49.520;8.504;2024-03-29T11:24:32;12.30;99.90
13436;DHT22;6790;49.520;8.504;2024-03-29T11:27:07;12.20;99.90
13436;DHT22;6790;49.520;8.504;2024-03-29T11:29:34;12.50;99.90
13436;DHT22;6790;49.520;8.504;2024-03-29T11:32:06;12.50;99.90
13436;DHT22;6790;49.520;8.504;2024-03-29T11:34:31;12.60;99.90
13436;DHT22;6790;49.520;8.504;2024-03-29T11:37:09;12.50;99.90
13436;DHT22;6790;49.520;8.504;2024-03-29T11:39:35;12.30;99.90
13436;DHT22;6790;49.520;8.504;2024-03-29T11:42:02;12.30;99.90
13436;DHT22;6790;49.520;8.504;2024-03-29T11:44:28;12.20;99.90
13436;DHT22;6790;49.520;8.504;2024-03-29T11:46:58;12.00;99.90
13436;DHT22;6790;49.520;8.504;2024-03-29T11:49:24;12.00;99.90
13436;DHT22;6790;49.520;8.504;2024-03-29T11:51:50;12.10;99.90
13436;DHT22;6790;49.520;8.504;2024-03-29T11:54:16;12.00;99.90
13436;DHT22;6790;49.520;8.504;2024-03-29T11:56:44;12.00;99.90
13436;DHT22;6790;49.520;8.504;2024-03-29T11:59:10;12.00;99.90
13436;DHT22;6790;49.520;8.504;2024-03-29T12:01:36;12.00;99.90
13436;DHT22;6790;49.520;8.504;2024-03-29T12:04:05;12.10;99.90
13436;DHT22;6790;49.520;8.504;2024-03-29T12:06:31;12.00;99.90
13436;DHT22;6790;49.520;8.504;2024-03-29T12:08:56;12.00;99.90
13436;DHT22;6790;49.520;8.504;2024-03-29T12:11:22;12.00;99.90
13436;DHT22;6790;49.520;8.504;2024-03-29T12:13:49;11.90;99.90
13436;DHT22;6790;49.520;8.504;2024-03-29T12:16:15;11.90;99.90
13436;DHT22;6790;49.520;8.504;2024-03-29T12:18:40;11.80;99.90
13436;DHT22;6790;49.520;8.504;2024-03-29T12:21:06;11.70;99.90
13436;DHT22;6790;49.520;8.504;2024-03-29T12:23:32;11.60;99.90
13436;DHT22;6790;49.520;8.504;2024-03-29T12:25:58;11.60;99.90
13436;DHT22;6790;49.520;8.504;2024-03-29T12:28:26;11.70;99.90
13436;DHT22;6790;49.520;8.504;2024-03-29T12:30:52;11.70;99.90
13436;DHT22;6790;49.520;8.504;2024-03-29T12:33:21;11.70;99.90
13436;DHT22;6790;49.520;8.504;2024-03-29T12:35:49;11.70;99.90
13436;DHT22;6790;49.520;8.504;2024-03-29T12:38:19;11.60;99.90
13436;DHT22;6790;49.520;8.504;2024-03-29T12:40:46;11.50;99.90
13436;DHT22;6790;49.520;8.504;2024-03-29T12:43:13;11.50;99.90
13436;DHT22;6790;49.520;8.504;2024-03-29T12:45:41;11.50;99.90
13436;DHT22;6790;49.520;8.504;2024-03-29T12:48:36;11.40;99.90
13436;DHT22;6790;49.520;8.504;2024-03-29T12:51:03;11.50;99.90
13436;DHT22;6790;49.520;8.504;2024-03-29T12:53:29;11.40;99.90
13436;DHT22;6790;49.520;8.504;2024-03-29T12:55:55;11.30;99.90
13436;DHT22;6790;49.520;8.504;2024-03-29T12:58:21;11.50;99.90
13436;DHT22;6790;49.520;8.504;2024-03-29T13:00:48;11.50;99.90
13436;DHT22;6790;49.520;8.504;2024-03-29T13:03:14;11.40;99.90
13436;DHT22;6790;49.520;8.504;2024-03-29T13:05:40;11.40;99.90
13436;DHT22;6790;49.520;8.504;2024-03-29T13:08:14;11.40;99.90
13436;DHT22;6790;49.520;8.504;2024-03-29T13:10:43;11.40;99.90
13436;DHT22;6790;49.520;8.504;2024-03-29T13:13:09;11.40;99.90
13436;DHT22;6790;49.520;8.504;2024-03-29T13:15:38;11.40;99.90
13436;DHT22;6790;49.520;8.504;2024-03-29T13:18:05;11.30;99.90
13436;DHT22;6790;49.520;8.504;2024-03-29T13:20:32;11.30;99.90
13436;DHT22;6790;49.520;8.504;2024-03-29T13:23:02;11.20;99.90
13436;DHT22;6790;49.520;8.504;2024-03-29T13:25:28;11.20;99.90
13436;DHT22;6790;49.520;8.504;2024-03-29T13:27:54;11.10;99.90
13436;DHT22;6790;49.520;8.504;2024-03-29T13:30:24;11.20;99.90
13436;DHT22;6790;49.520;8.504;2024-03-29T13:32:52;11.30;99.90
13436;DHT22;6790;49.520;8.504;2024-03-29T13:35:18;11.20;99.90
13436;DHT22;6790;49.520;8.504;2024-03-29T13:37:47;11.40;99.90
13436;DHT22;6790;49.520;8.504;2024-03-29T13:40:19;11.30;99.90
13436;DHT22;6790;49.520;8.504;2024-03-29T13:42:46;11.30;99.90
13436;DHT22;6790;49.520;8.504;2024-03-29T13:45:12;11.40;99.90
13436;DHT22;6790;49.520;8.504;2024-03-29T13:47:41;11.40;99.90
13436;DHT22;6790;49.520;8.504;2024-03-29T13:50:10;11.30;99.90
13436;DHT22;6790;49.520;8.504;2024-03-29T13:52:36;11.30;99.90
13436;DHT22;6790;49.520;8.504;2024-03-29T13:55:03;11.30;99.90
13436;DHT22;6790;49.520;8.504;2024-03-29T13:57:29;11.30;99.90
13436;DHT22;6790;49.520;8.504;2024-03-29T13:59:56;11.30;99.90
13436;DHT22;6790;49.520;8.504;2024-03-29T14:02:25;11.30;99.90
13436;DHT22;6790;49.520;8.504;2024-03-29T14:04:54;11.40;99.90
13436;DHT22;6790;49.520;8.504;2024-03-29T14:07:21;11.50;99.90
13436;DHT22;6790;49.520;8.504;2024-03-29T14:09:50;11.50;99.90
13436;DHT22;6790;49.520;8.504;2024-03-29T14:12:16;11.50;99.90
13436;DHT22;6790;49.520;8.504;2024-03-29T14:14:43;11.70;99.90
13436;DHT22;6790;49.520;8.504;2024-03-29T14:17:12;11.60;99.90
13436;DHT22;6790;49.520;8.504;2024-03-29T14:19:38;11.50;99.90
13436;DHT22;6790;49.520;8.504;2024-03-29T14:22:05;11.50;99.90
13436;DHT22;6790;49.520;8.504;2024-03-29T14:24:32;11.70;99.90
13436;DHT22;6790;49.520;8.504;2024-03-29T14:27:04;11.70;99.90
13436;DHT22;6790;49.520;8.504;2024-03-29T14:29:31;11.80;99.90
13436;DHT22;6790;49.520;8.504;2024-03-29T14:31:57;11.80;99.90
13436;DHT22;6790;49.520;8.504;2024-03-29T14:34:23;12.10;99.90
13436;DHT22;6790;49.520;8.504;2024-03-29T14:36:50;12.30;99.90
13436;DHT22;6790;49.520;8.504;2024-03-29T14:39:16;12.40;99.90
13436;DHT22;6790;49.520;8.504;2024-03-29T14:41:43;12.80;99.90
13436;DHT22;6790;49.520;8.504;2024-03-29T14:44:12;12.80;99.90
13436;DHT22;6790;49.520;8.504;2024-03-29T14:46:38;13.00;99.90
13436;DHT22;6790;49.520;8.504;2024-03-29T14:49:03;12.90;99.90
13436;DHT22;6790;49.520;8.504;2024-03-29T14:51:33;12.90;99.90
13436;DHT22;6790;49.520;8.504;2024-03-29T14:53:59;13.10;99.90
13436;DHT22;6790;49.520;8.504;2024-03-29T14:56:24;13.00;99.90
13436;DHT22;6790;49.520;8.504;2024-03-29T14:58:51;12.80;99.90
13436;DHT22;6790;49.520;8.504;2024-03-29T15:01:16;12.80;99.90
13436;DHT22;6790;49.520;8.504;2024-03-29T15:03:42;12.90;99.90
13436;DHT22;6790;49.520;8.504;2024-03-29T15:06:08;12.80;99.90
13436;DHT22;6790;49.520;8.504;2024-03-29T15:08:33;12.60;99.90
13436;DHT22;6790;49.520;8.504;2024-03-29T15:11:02;12.70;99.90
13436;DHT22;6790;49.520;8.504;2024-03-29T15:13:29;12.70;99.90
13436;DHT22;6790;49.520;8.504;2024-03-29T15:15:56;12.60;99.90
13436;DHT22;6790;49.520;8.504;2024-03-29T15:18:22;12.60;99.90
13436;DHT22;6790;49.520;8.504;2024-03-29T15:21:01;12.50;99.90
13436;DHT22;6790;49.520;8.504;2024-03-29T15:23:29;12.60;99.90
13436;DHT22;6790;49.520;8.504;2024-03-29T15:25:56;12.70;99.90
13436;DHT22;6790;49.520;8.504;2024-03-29T15:28:23;12.60;99.90
13436;DHT22;6790;49.520;8.504;2024-03-29T15:31:10;12.50;99.90
13436;DHT22;6790;49.520;8.504;2024-03-29T15:33:42;12.70;99.90
13436;DHT22;6790;49.520;8.504;2024-03-29T15:36:08;13.00;99.90
13436;DHT22;6790;49.520;8.504;2024-03-29T15:38:34;13.40;99.90
13436;DHT22;6790;49.520;8.504;2024-03-29T15:41:01;13.30;99.90
13436;DHT22;6790;49.520;8.504;2024-03-29T15:43:27;13.30;99.90
13436;DHT22;6790;49.520;8.504;2024-03-29T15:45:54;13.20;99.90
13436;DHT22;6790;49.520;8.504;2024-03-29T15:48:22;13.50;99.90
13436;DHT22;6790;49.520;8.504;2024-03-29T15:50:49;13.60;99.90
13436;DHT22;6790;49.520;8.504;2024-03-29T15:53:18;14.00;99.90
13436;DHT22;6790;49.520;8.504;2024-03-29T15:55:45;14.10;99.90